Terminal Aerodrome Forecast
Issued by NWS Jacksonville, FL

Home | Current Version | Previous Version | Text Only | Print | Product List | Glossary On
Versions: 1 2 3 4 5 6 7 8 9 10 11 12 13 14 15 16 17 18 19 20 21 22 23
041
FTUS42 KJAX 130525
TAFGNV
TAF
KGNV 130525Z 1306/1406 26010KT P6SM SCT015
     FM131000 31007KT P6SM SKC
     FM131500 35011G20KT P6SM SKC
     FM140000 35004KT P6SM SKC=

USA.gov is the U.S. government's official web portal to all federal, state and local government web resources and services.